Latest Weather Observations for Cape Nelson

IDV60801

Issued at 9:42 am EDT Thursday 23 January 2020 (issued every 10 minutes, with the page automatically refreshed every 10 minutes)

About weather observations | Map of weather stations | Latest weather observations for VIC | Other Formats
Station Details ID: 090184 Name: CAPE NELSON LIGHTHOUSE Lat: -38.43 Lon: 141.54 Height: 45.4 m
Data from the previous 72 hours. | See also: Recent months at Cape Nelson
Date/Time
EDT
Temp
°C
App
Temp
°C
Dew
Point
°C
Rel
Hum
%
Delta-T
°C
Wind Press
QNH
hPa
Press
MSL
hPa
Rain since
9am
mm
Dir  Spd
km/h
Gust
km/h
Spd
kts
Gust
kts
23/09:30am 12.5 7.2 11.2 92 0.7 NNW 30 44 16 24 993.1 993.0 0.4
23/09:00am 12.2 5.9 11.1 93 0.6 NW 35 61 19 33 993.1 993.0 12.8
23/08:56am 12.2 6.3 11.1 93 0.6 NW 33 52 18 28 993.2 993.1 12.6
23/08:30am 12.1 7.9 11.2 94 0.5 NNW 24 32 13 17 993.0 992.9 12.2
23/08:00am 12.0 6.2 10.9 93 0.6 NNW 32 46 17 25 993.1 993.0 11.8
23/07:30am 11.7 6.6 10.6 93 0.6 NNW 28 43 15 23 993.0 992.9 11.4
23/07:00am 11.4 6.6 10.3 93 0.6 NNW 26 44 14 24 993.0 992.9 10.6
23/06:30am 11.0 6.9 10.1 94 0.5 N 22 35 12 19 993.0 992.9 10.4
23/06:00am 10.7 6.5 9.8 94 0.5 NNW 22 32 12 17 993.4 993.3 10.4
23/05:30am 10.7 7.1 9.8 94 0.5 NNW 19 32 10 17 993.4 993.3 10.4
23/05:00am 10.7 7.5 9.8 94 0.5 N 17 24 9 13 993.6 993.5 10.4
23/04:30am 10.8 7.2 9.7 93 0.6 NNW 19 33 10 18 993.9 993.8 10.4
23/04:00am 10.8 7.0 9.7 93 0.6 NNW 20 30 11 16 994.1 994.0 10.4
23/03:30am 11.0 6.8 9.9 93 0.6 NNW 22 33 12 18 994.7 994.6 10.4
23/03:00am 11.2 5.9 10.0 92 0.6 NNW 28 39 15 21 995.4 995.3 10.2
23/02:30am 11.2 6.7 10.1 93 0.6 NNW 24 39 13 21 995.9 995.8 9.8
23/02:05am 11.7 6.7 10.8 94 0.5 NW 28 48 15 26 996.5 996.4 9.6
23/02:00am 11.7 7.0 10.8 94 0.5 NW 26 41 14 22 996.6 996.5 9.6
23/01:30am 11.7 6.5 10.4 92 0.7 NW 28 39 15 21 996.9 996.8 9.4
23/01:00am 11.9 6.4 10.6 92 0.7 NW 30 46 16 25 997.5 997.4 9.2
23/12:30am 12.3 8.5 11.0 92 0.7 NW 22 35 12 19 997.7 997.6 8.4
23/12:00am 12.4 7.8 11.0 91 0.7 NW 26 37 14 20 998.3 998.2 7.6
 
Date/Time
EDT
Temp
°C
App
Temp
°C
Dew
Point
°C
Rel
Hum
%
Delta-T
°C
Wind Press
QNH
hPa
Press
MSL
hPa
Rain since
9am
mm
Dir  Spd
km/h
Gust
km/h
Spd
kts
Gust
kts
22/11:30pm 13.0 8.9 11.6 91 0.7 NW 24 37 13 20 998.7 998.6 6.4
22/11:00pm 13.4 10.3 12.1 92 0.7 NW 20 32 11 17 998.5 998.4 5.6
22/10:30pm 13.6 10.7 12.2 91 0.8 NNW 19 30 10 16 998.3 998.2 4.8
22/10:00pm 14.0 10.2 12.4 90 0.9 WNW 24 32 13 17 998.3 998.2 4.4
22/09:30pm 14.4 11.7 12.8 90 0.9 NNW 19 28 10 15 997.6 997.5 3.4
22/09:00pm 14.3 12.0 12.9 91 0.8 NNW 17 24 9 13 997.2 997.1 3.4
22/08:30pm 14.0 12.0 12.7 92 0.7 NNW 15 19 8 10 997.2 997.1 3.4
22/08:00pm 14.0 11.7 12.9 93 0.6 NNW 17 24 9 13 997.5 997.4 3.4
22/07:30pm 14.0 12.1 12.9 93 0.6 NW 15 19 8 10 997.3 997.2 3.4
22/07:00pm 14.1 11.8 13.0 93 0.6 NW 17 26 9 14 997.6 997.5 3.4
22/06:30pm 14.0 10.3 12.7 92 0.7 NW 24 35 13 19 997.4 997.3 3.2
22/06:00pm 14.0 10.4 12.9 93 0.6 NW 24 33 13 18 997.1 997.0 3.2
22/05:30pm 14.2 9.8 12.9 92 0.7 NW 28 35 15 19 997.3 997.2 2.6
22/05:00pm 14.4 10.0 13.0 91 0.8 WNW 28 37 15 20 997.1 997.0 2.4
22/04:30pm 14.5 9.1 12.7 89 1.0 WNW 33 48 18 26 997.5 997.4 1.8
22/04:00pm 14.5 7.4 12.2 86 1.3 WNW 41 57 22 31 997.5 997.4 1.6
22/03:51pm 14.6 8.8 12.8 89 1.0 WNW 35 57 19 31 997.8 997.7 1.6
22/03:30pm 15.0 9.8 13.5 91 0.8 WNW 33 44 18 24 997.4 997.3 1.4
22/03:00pm 15.4 10.9 13.8 90 0.9 WNW 30 43 16 23 997.3 997.2 1.4
22/02:30pm 15.2 10.2 13.9 92 0.7 WNW 33 46 18 25 997.7 997.6 1.4
22/02:00pm 15.1 8.8 13.6 91 0.8 W 39 57 21 31 998.0 997.9 0.8
22/01:39pm 15.3 10.2 13.7 90 0.9 W 33 54 18 29 997.7 997.6 0.6
22/01:30pm 15.6 10.8 14.1 91 0.9 W 32 48 17 26 997.6 997.5 0.6
22/01:00pm 17.1 13.9 15.3 89 1.1 W 26 35 14 19 996.6 996.5 0.4
22/12:30pm 17.7 13.1 14.6 82 1.8 W 32 43 17 23 996.2 996.1 0.0
22/12:00pm 18.7 14.6 13.8 73 2.8 W 28 39 15 21 996.4 996.3 0.0
22/11:30am 19.1 15.7 12.6 66 3.6 WNW 22 32 12 17 996.6 996.5 0.0
22/11:00am 22.2 18.4 11.0 49 6.2 WNW 22 32 12 17 996.1 996.0 0.0
22/10:30am 22.8 18.5 9.2 42 7.3 WNW 22 32 12 17 995.7 995.6 0.0
22/10:00am 24.6 18.5 6.8 32 9.3 NNW 28 46 15 25 995.6 995.5 0.0
22/09:30am 23.7 17.4 7.3 35 8.6 N 30 48 16 26 995.6 995.5 0.0
22/09:28am 23.7 17.4 7.3 35 8.6 N 30 48 16 26 995.5 995.4 0.0
22/09:00am 22.3 16.1 7.7 39 7.7 N 30 46 16 25 995.8 995.7 0.0
22/08:30am 21.2 14.5 7.4 41 7.1 N 32 46 17 25 996.2 996.1 0.0
22/08:00am 19.9 13.0 7.3 44 6.5 N 33 50 18 27 996.3 996.2 0.0
22/07:30am 19.8 12.9 7.2 44 6.4 N 33 54 18 29 996.6 996.5 0.0
22/07:05am 19.0 12.4 7.8 48 5.7 N 32 52 17 28 996.6 996.5 0.0
22/07:00am 18.7 12.5 7.8 49 5.6 N 30 44 16 24 996.7 996.6 0.0
22/06:30am 18.2 12.4 7.9 51 5.3 N 28 41 15 22 997.2 997.1 0.0
22/06:00am 17.6 12.6 8.2 54 4.8 N 24 32 13 17 997.5 997.4 0.0
22/05:30am 17.9 12.6 8.5 54 4.8 N 26 39 14 21 997.9 997.8 0.0
22/05:00am 17.0 11.9 9.2 60 4.1 N 26 35 14 19 998.4 998.3 0.0
22/04:30am 16.2 10.8 9.4 64 3.5 N 28 39 15 21 998.7 998.6 0.0
22/04:00am 14.8 10.2 9.6 71 2.7 N 24 30 13 16 999.4 999.3 0.0
22/03:30am 14.8 10.2 9.6 71 2.7 N 24 39 13 21 1000.1 1000.0 0.0
22/03:00am 14.5 10.1 10.5 77 2.1 NNE 24 33 13 18 1000.6 1000.5 0.0
22/02:30am 14.3 10.9 11.1 81 1.7 NNE 20 32 11 17 1001.3 1001.2 0.0
22/02:00am 14.6 11.8 11.4 81 1.7 NE 17 24 9 13 1002.2 1002.1 0.0
22/01:30am 14.7 11.4 11.5 81 1.7 NE 20 28 11 15 1002.9 1002.8 0.0
22/01:00am 14.9 11.3 11.7 81 1.7 NE 22 28 12 15 1003.5 1003.4 0.0
22/12:30am 15.1 10.7 11.7 80 1.8 NE 26 35 14 19 1003.9 1003.8 0.0
22/12:00am 15.3 11.4 10.9 75 2.4 NE 22 30 12 16 1004.8 1004.6 0.0
 
Date/Time
EDT
Temp
°C
App
Temp
°C
Dew
Point
°C
Rel
Hum
%
Delta-T
°C
Wind Press
QNH
hPa
Press
MSL
hPa
Rain since
9am
mm
Dir  Spd
km/h
Gust
km/h
Spd
kts
Gust
kts
21/11:30pm 15.2 11.6 10.4 73 2.5 ENE 20 30 11 16 1005.1 1004.9 0.0
21/11:00pm 14.8 12.4 10.0 73 2.5 ENE 13 19 7 10 1005.8 1005.6 0.0
21/10:30pm 14.5 12.4 9.7 73 2.5 ENE 11 17 6 9 1006.3 1006.1 0.0
21/10:00pm 14.0 12.1 9.2 73 2.5 ENE 9 13 5 7 1006.4 1006.2 0.0
21/09:30pm 14.1 12.6 9.1 72 2.5 ENE 7 9 4 5 1006.8 1006.7 0.0
21/09:00pm 14.5 12.9 8.9 69 2.9 ENE 7 9 4 5 1006.9 1006.8 0.0
21/08:30pm 15.5 13.7 9.6 68 3.1 E 9 13 5 7 1006.7 1006.6 0.0
21/08:00pm 16.5 14.9 10.1 66 3.4 E 9 11 5 6 1006.6 1006.5 0.0
21/07:30pm 17.0 15.5 10.4 65 3.5 SSE 9 13 5 7 1006.8 1006.7 0.0
21/07:00pm 17.5 15.6 10.4 63 3.8 SSE 11 15 6 8 1006.8 1006.7 0.0
21/06:30pm 17.8 15.9 10.4 62 4.0 S 11 15 6 8 1006.9 1006.8 0.0
21/06:00pm 18.2 16.4 11.0 63 3.9 S 11 17 6 9 1007.1 1007.0 0.0
21/05:30pm 18.3 16.1 10.7 61 4.1 S 13 17 7 9 1007.4 1007.3 0.0
21/05:00pm 18.2 15.9 10.6 61 4.1 S 13 17 7 9 1007.9 1007.8 0.0
21/04:30pm 18.4 15.7 10.5 60 4.2 S 15 20 8 11 1008.1 1008.0 0.0
21/04:00pm 17.4 14.7 10.5 64 3.7 S 15 24 8 13 1008.7 1008.6 0.0
21/03:30pm 18.1 16.1 10.2 60 4.2 SE 11 19 6 10 1008.9 1008.8 0.0
21/03:00pm 18.6 17.1 10.7 60 4.3 E 9 17 5 9 1009.4 1009.3 0.0
21/02:30pm 17.9 15.5 10.0 60 4.2 WNW 13 20 7 11 1009.5 1009.4 0.0
21/02:00pm 17.7 14.8 9.6 59 4.3 W 15 20 8 11 1009.9 1009.8 0.0
21/01:30pm 16.8 12.8 9.2 61 3.9 W 20 24 11 13 1010.3 1010.2 0.0
21/01:00pm 17.2 13.6 10.6 65 3.5 W 20 28 11 15 1010.8 1010.7 0.0
21/12:30pm 16.8 13.4 9.0 60 4.0 W 17 22 9 12 1011.1 1011.0 0.0
21/12:00pm 18.2 16.1 8.2 52 5.1 WSW 9 15 5 8 1011.2 1011.1 0.0
21/11:30am 17.5 15.9 8.6 56 4.6 W 7 13 4 7 1011.4 1011.3 0.0
21/11:00am 17.4 15.2 8.0 54 4.8 SSW 9 13 5 7 1011.5 1011.4 0.0
21/10:30am 16.7 14.1 7.9 56 4.5 WSW 11 17 6 9 1011.6 1011.5 0.0
21/10:00am 16.5 14.2 7.4 55 4.6 W 9 15 5 8 1011.8 1011.7 0.0
21/09:30am 16.6 14.9 7.5 55 4.6 WSW 6 11 3 6 1011.7 1011.6 0.0
21/09:00am 15.9 14.1 7.9 59 4.0 W 7 11 4 6 1011.5 1011.4 0.0
21/08:30am 16.0 13.8 8.0 59 4.0 S 9 13 5 7 1011.4 1011.3 0.0
21/08:00am 15.6 13.9 8.4 62 3.7 ESE 7 13 4 7 1011.1 1011.0 0.0
21/07:30am 14.9 12.1 8.6 66 3.2 S 13 20 7 11 1010.9 1010.8 0.0
21/07:00am 14.3 10.7 8.5 68 2.9 S 17 22 9 12 1010.7 1010.6 0.0
21/06:30am 14.0 10.1 8.6 70 2.7 S 19 24 10 13 1010.5 1010.4 0.0
21/06:00am 14.1 9.9 8.3 68 2.9 S 20 28 11 15 1010.3 1010.2 0.0
21/05:30am 14.1 10.2 8.5 69 2.8 S 19 24 10 13 1010.2 1010.1 0.0
21/05:00am 14.2 9.9 9.2 72 2.6 S 22 28 12 15 1010.0 1009.9 0.0
21/04:30am 14.3 9.9 9.1 71 2.7 S 22 32 12 17 1010.0 1009.9 0.0
21/04:00am 14.4 9.7 9.2 71 2.7 S 24 35 13 19 1010.1 1010.0 0.0
21/03:30am 14.5 10.6 9.5 72 2.6 S 20 30 11 16 1010.2 1010.1 0.0
21/03:00am 14.3 9.6 9.3 72 2.6 S 24 33 13 18 1010.4 1010.3 0.0
21/02:30am 14.5 10.6 9.3 71 2.7 S 20 28 11 15 1010.7 1010.6 0.0
21/02:00am 14.4 10.1 9.2 71 2.7 S 22 32 12 17 1011.0 1010.9 0.0
21/01:30am 14.3 10.4 9.5 73 2.5 S 20 28 11 15 1011.0 1010.9 0.0
21/01:00am 14.6 10.9 9.6 72 2.6 S 19 26 10 14 1011.5 1011.4 0.0
21/12:30am 14.6 9.8 9.0 69 2.9 S 24 32 13 17 1011.6 1011.5 0.0
21/12:00am 14.5 9.8 9.3 71 2.7 S 24 33 13 18 1011.7 1011.6 0.0
 
Date/Time
EDT
Temp
°C
App
Temp
°C
Dew
Point
°C
Rel
Hum
%
Delta-T
°C
Wind Press
QNH
hPa
Press
MSL
hPa
Rain since
9am
mm
Dir  Spd
km/h
Gust
km/h
Spd
kts
Gust
kts
20/11:30pm 14.9 10.3 9.5 70 2.8 S 24 33 13 18 1011.9 1011.8 0.0
20/11:00pm 14.7 10.0 9.1 69 2.9 S 24 35 13 19 1012.1 1012.0 0.0
20/10:30pm 15.0 10.9 10.0 72 2.6 S 22 30 12 16 1012.1 1012.0 0.0
20/10:00pm 15.0 10.9 10.0 72 2.6 S 22 30 12 16 1011.9 1011.8 0.0
20/09:30pm 14.9 10.7 9.9 72 2.6 SSE 22 30 12 16 1011.7 1011.6 0.0
20/09:00pm 14.9 10.1 10.3 74 2.4 S 26 35 14 19 1011.3 1011.2 0.0
20/08:30pm 15.1 10.8 10.7 75 2.3 S 24 35 13 19 1011.1 1011.0 0.0
20/08:00pm 15.1 10.0 10.7 75 2.3 SSE 28 35 15 19 1010.8 1010.7 0.0
20/07:30pm 15.1 10.0 10.7 75 2.3 SSE 28 35 15 19 1010.5 1010.4 0.0
20/07:00pm 15.3 10.2 10.7 74 2.4 SSE 28 37 15 20 1010.3 1010.2 0.0
20/06:30pm 15.3 10.3 10.9 75 2.3 SSE 28 37 15 20 1010.2 1010.1 0.0
20/06:00pm 15.8 11.6 11.2 74 2.5 S 24 35 13 19 1010.0 1009.9 0.0
20/05:30pm 15.5 10.5 11.1 75 2.4 SSE 28 35 15 19 1010.1 1010.0 0.0
20/05:00pm 16.1 11.3 11.5 74 2.5 SSE 28 37 15 20 1009.9 1009.8 0.0
20/04:30pm 15.7 10.5 11.5 76 2.3 SSE 30 39 16 21 1010.1 1010.0 0.0
20/04:00pm 16.0 10.9 12.0 77 2.2 S 30 39 16 21 1010.1 1010.0 0.0
20/03:30pm 16.6 11.3 12.4 76 2.3 SSE 32 39 17 21 1010.0 1009.9 0.0
20/03:00pm 16.9 11.6 12.6 76 2.4 SSE 32 39 17 21 1009.8 1009.7 0.0
20/02:30pm 17.5 12.1 12.8 74 2.6 SSE 33 44 18 24 1009.8 1009.7 0.0
20/02:00pm 16.2 10.1 11.8 75 2.4 SSE 35 46 19 25 1009.9 1009.8 0.0
20/01:30pm 16.3 10.4 12.3 77 2.2 SSE 35 48 19 26 1009.9 1009.8 0.0
20/01:00pm 16.1 8.7 12.5 79 2.0 SSE 43 52 23 28 1009.9 1009.8 0.0
20/12:30pm 16.1 9.2 12.7 80 1.9 SSE 41 52 22 28 1009.8 1009.7 0.0
20/12:00pm 16.1 9.2 12.7 80 1.9 SSE 41 56 22 30 1009.7 1009.6 0.0
20/11:30am 16.1 8.6 12.7 80 1.9 SSE 44 59 24 32 1009.5 1009.4 0.0
20/11:22am 16.4 9.3 13.5 83 1.6 SSE 43 61 23 33 1009.3 1009.2 0.0
20/11:00am 15.9 8.4 12.8 82 1.7 SSE 44 56 24 30 1009.4 1009.3 0.0
20/10:55am 15.8 8.5 12.7 82 1.7 SSE 43 61 23 33 1009.4 1009.3 0.0
20/10:30am 16.1 8.8 13.4 84 1.5 SSE 44 59 24 32 1009.3 1009.2 0.0
20/10:00am 16.2 9.2 13.7 85 1.4 SSE 43 54 23 29 1009.2 1009.1 0.0

Other formats

Comma delimited format used in spreadsheet applications
http://www.bom.gov.au/fwo/IDV60801/IDV60801.94826.axf

JavaScript Object Notation format (JSON) in row-major order
http://www.bom.gov.au/fwo/IDV60801/IDV60801.94826.json

Data quality

Most of these data are generated automatically and are frequently updated. Quality checks on data are not normally performed. It is possible for incorrect values to appear. Refer to information at About Latest Weather Observations and please check the disclaimer before using these data.